sensor_id;sensor_type;location;lat;lon;timestamp;P1;durP1;ratioP1;P2;durP2;ratioP2
38117;SDS011;23928;47.562;7.508;2023-02-01T00:01:39;8.00;;;4.23;;
38117;SDS011;23928;47.562;7.508;2023-02-01T00:04:04;7.23;;;4.30;;
38117;SDS011;23928;47.562;7.508;2023-02-01T00:06:30;10.60;;;5.10;;
38117;SDS011;23928;47.562;7.508;2023-02-01T00:08:56;6.93;;;3.97;;
38117;SDS011;23928;47.562;7.508;2023-02-01T00:11:22;7.30;;;4.07;;
38117;SDS011;23928;47.562;7.508;2023-02-01T00:13:48;5.83;;;4.30;;
38117;SDS011;23928;47.562;7.508;2023-02-01T00:16:16;8.90;;;4.57;;
38117;SDS011;23928;47.562;7.508;2023-02-01T00:18:46;8.27;;;4.20;;
38117;SDS011;23928;47.562;7.508;2023-02-01T00:21:14;7.67;;;3.77;;
38117;SDS011;23928;47.562;7.508;2023-02-01T00:23:42;7.57;;;3.97;;
38117;SDS011;23928;47.562;7.508;2023-02-01T00:26:14;6.10;;;3.77;;
38117;SDS011;23928;47.562;7.508;2023-02-01T00:28:44;7.20;;;4.23;;
38117;SDS011;23928;47.562;7.508;2023-02-01T00:31:10;7.40;;;4.20;;
38117;SDS011;23928;47.562;7.508;2023-02-01T00:33:36;5.20;;;3.83;;
38117;SDS011;23928;47.562;7.508;2023-02-01T00:36:06;5.93;;;3.87;;
38117;SDS011;23928;47.562;7.508;2023-02-01T00:38:33;7.27;;;4.63;;
38117;SDS011;23928;47.562;7.508;2023-02-01T00:41:05;6.57;;;4.27;;
38117;SDS011;23928;47.562;7.508;2023-02-01T00:43:33;7.57;;;4.50;;
38117;SDS011;23928;47.562;7.508;2023-02-01T00:45:59;5.80;;;4.20;;
38117;SDS011;23928;47.562;7.508;2023-02-01T00:48:25;7.73;;;4.27;;
38117;SDS011;23928;47.562;7.508;2023-02-01T00:50:51;7.37;;;3.77;;
38117;SDS011;23928;47.562;7.508;2023-02-01T00:53:17;6.47;;;3.80;;
38117;SDS011;23928;47.562;7.508;2023-02-01T00:55:46;6.47;;;4.73;;
38117;SDS011;23928;47.562;7.508;2023-02-01T00:58:12;5.77;;;3.93;;
38117;SDS011;23928;47.562;7.508;2023-02-01T01:00:38;7.67;;;4.00;;
38117;SDS011;23928;47.562;7.508;2023-02-01T01:03:04;5.20;;;4.00;;
38117;SDS011;23928;47.562;7.508;2023-02-01T01:05:45;6.00;;;4.10;;
38117;SDS011;23928;47.562;7.508;2023-02-01T01:08:11;7.50;;;4.47;;
38117;SDS011;23928;47.562;7.508;2023-02-01T01:10:38;6.07;;;3.90;;
38117;SDS011;23928;47.562;7.508;2023-02-01T01:13:04;6.50;;;4.20;;
38117;SDS011;23928;47.562;7.508;2023-02-01T01:15:30;6.00;;;3.90;;
38117;SDS011;23928;47.562;7.508;2023-02-01T01:17:55;5.60;;;3.93;;
38117;SDS011;23928;47.562;7.508;2023-02-01T01:20:21;8.10;;;4.70;;
38117;SDS011;23928;47.562;7.508;2023-02-01T01:22:47;7.23;;;3.80;;
38117;SDS011;23928;47.562;7.508;2023-02-01T01:25:13;6.27;;;3.80;;
38117;SDS011;23928;47.562;7.508;2023-02-01T01:27:39;6.13;;;3.70;;
38117;SDS011;23928;47.562;7.508;2023-02-01T01:30:04;6.73;;;4.07;;
38117;SDS011;23928;47.562;7.508;2023-02-01T01:32:30;6.37;;;3.43;;
38117;SDS011;23928;47.562;7.508;2023-02-01T01:34:56;6.50;;;3.77;;
38117;SDS011;23928;47.562;7.508;2023-02-01T01:37:22;6.07;;;3.53;;
38117;SDS011;23928;47.562;7.508;2023-02-01T01:39:47;6.30;;;3.37;;
38117;SDS011;23928;47.562;7.508;2023-02-01T01:42:13;6.93;;;4.00;;
38117;SDS011;23928;47.562;7.508;2023-02-01T01:44:58;6.50;;;3.67;;
38117;SDS011;23928;47.562;7.508;2023-02-01T01:47:39;5.10;;;3.60;;
38117;SDS011;23928;47.562;7.508;2023-02-01T01:50:13;5.10;;;3.73;;
38117;SDS011;23928;47.562;7.508;2023-02-01T01:52:42;4.40;;;3.33;;
38117;SDS011;23928;47.562;7.508;2023-02-01T01:55:11;4.87;;;3.70;;
38117;SDS011;23928;47.562;7.508;2023-02-01T01:57:40;6.23;;;3.60;;
38117;SDS011;23928;47.562;7.508;2023-02-01T02:02:37;5.40;;;3.50;;
38117;SDS011;23928;47.562;7.508;2023-02-01T02:05:05;5.33;;;3.60;;
38117;SDS011;23928;47.562;7.508;2023-02-01T02:07:33;6.47;;;3.73;;
38117;SDS011;23928;47.562;7.508;2023-02-01T02:10:06;5.37;;;3.57;;
38117;SDS011;23928;47.562;7.508;2023-02-01T02:12:37;6.43;;;3.97;;
38117;SDS011;23928;47.562;7.508;2023-02-01T02:15:04;4.20;;;3.23;;
38117;SDS011;23928;47.562;7.508;2023-02-01T02:26:32;6.63;;;4.17;;
38117;SDS011;23928;47.562;7.508;2023-02-01T02:32:11;7.17;;;3.77;;
38117;SDS011;23928;47.562;7.508;2023-02-01T02:34:55;11.73;;;4.63;;
38117;SDS011;23928;47.562;7.508;2023-02-01T02:37:34;6.47;;;3.80;;
38117;SDS011;23928;47.562;7.508;2023-02-01T02:42:56;7.10;;;4.00;;
38117;SDS011;23928;47.562;7.508;2023-02-01T02:45:54;6.17;;;3.80;;
38117;SDS011;23928;47.562;7.508;2023-02-01T02:49:10;6.63;;;3.87;;
38117;SDS011;23928;47.562;7.508;2023-02-01T02:51:52;7.57;;;4.33;;
38117;SDS011;23928;47.562;7.508;2023-02-01T02:54:41;6.03;;;3.97;;
38117;SDS011;23928;47.562;7.508;2023-02-01T02:57:19;6.00;;;3.83;;
38117;SDS011;23928;47.562;7.508;2023-02-01T03:00:10;5.60;;;4.30;;
38117;SDS011;23928;47.562;7.508;2023-02-01T03:02:57;5.43;;;3.50;;
38117;SDS011;23928;47.562;7.508;2023-02-01T03:05:43;5.57;;;4.37;;
38117;SDS011;23928;47.562;7.508;2023-02-01T03:11:08;8.10;;;4.50;;
38117;SDS011;23928;47.562;7.508;2023-02-01T03:13:46;8.80;;;5.33;;
38117;SDS011;23928;47.562;7.508;2023-02-01T03:21:31;9.37;;;5.50;;
38117;SDS011;23928;47.562;7.508;2023-02-01T03:24:02;8.17;;;5.30;;
38117;SDS011;23928;47.562;7.508;2023-02-01T03:26:33;8.73;;;4.47;;
38117;SDS011;23928;47.562;7.508;2023-02-01T03:29:17;9.33;;;5.60;;
38117;SDS011;23928;47.562;7.508;2023-02-01T03:31:47;8.40;;;5.17;;
38117;SDS011;23928;47.562;7.508;2023-02-01T03:34:13;8.60;;;4.63;;
38117;SDS011;23928;47.562;7.508;2023-02-01T03:36:40;9.73;;;5.00;;
38117;SDS011;23928;47.562;7.508;2023-02-01T03:39:17;7.47;;;5.20;;
38117;SDS011;23928;47.562;7.508;2023-02-01T03:41:55;11.87;;;5.40;;
38117;SDS011;23928;47.562;7.508;2023-02-01T03:47:12;9.10;;;5.50;;
38117;SDS011;23928;47.562;7.508;2023-02-01T03:49:42;9.57;;;4.97;;
38117;SDS011;23928;47.562;7.508;2023-02-01T03:52:12;9.03;;;4.90;;
38117;SDS011;23928;47.562;7.508;2023-02-01T03:54:41;9.10;;;5.00;;
38117;SDS011;23928;47.562;7.508;2023-02-01T03:57:09;8.17;;;5.00;;
38117;SDS011;23928;47.562;7.508;2023-02-01T03:59:39;7.17;;;4.57;;
38117;SDS011;23928;47.562;7.508;2023-02-01T04:02:06;9.37;;;5.33;;
38117;SDS011;23928;47.562;7.508;2023-02-01T04:04:32;7.43;;;5.40;;
38117;SDS011;23928;47.562;7.508;2023-02-01T04:06:59;7.60;;;5.00;;
38117;SDS011;23928;47.562;7.508;2023-02-01T04:09:25;7.53;;;4.90;;
38117;SDS011;23928;47.562;7.508;2023-02-01T04:11:50;8.97;;;4.83;;
38117;SDS011;23928;47.562;7.508;2023-02-01T04:14:16;9.17;;;5.00;;
38117;SDS011;23928;47.562;7.508;2023-02-01T04:16:42;6.77;;;4.37;;
38117;SDS011;23928;47.562;7.508;2023-02-01T04:19:07;7.17;;;4.63;;
38117;SDS011;23928;47.562;7.508;2023-02-01T04:21:33;7.83;;;4.87;;
38117;SDS011;23928;47.562;7.508;2023-02-01T04:23:59;6.33;;;4.67;;
38117;SDS011;23928;47.562;7.508;2023-02-01T04:26:24;6.50;;;4.50;;
38117;SDS011;23928;47.562;7.508;2023-02-01T04:28:50;8.27;;;4.50;;
38117;SDS011;23928;47.562;7.508;2023-02-01T04:31:17;6.40;;;4.43;;
38117;SDS011;23928;47.562;7.508;2023-02-01T04:33:50;9.30;;;5.00;;
38117;SDS011;23928;47.562;7.508;2023-02-01T04:36:17;7.87;;;4.50;;
38117;SDS011;23928;47.562;7.508;2023-02-01T04:38:45;6.73;;;4.57;;
38117;SDS011;23928;47.562;7.508;2023-02-01T04:41:12;6.80;;;4.20;;
38117;SDS011;23928;47.562;7.508;2023-02-01T04:43:37;6.93;;;3.90;;
38117;SDS011;23928;47.562;7.508;2023-02-01T04:46:03;9.53;;;4.63;;
38117;SDS011;23928;47.562;7.508;2023-02-01T04:48:29;7.77;;;4.40;;
38117;SDS011;23928;47.562;7.508;2023-02-01T04:50:55;6.10;;;4.03;;
38117;SDS011;23928;47.562;7.508;2023-02-01T04:53:21;5.87;;;4.03;;
38117;SDS011;23928;47.562;7.508;2023-02-01T04:55:47;6.43;;;4.10;;
38117;SDS011;23928;47.562;7.508;2023-02-01T04:58:14;7.07;;;4.53;;
38117;SDS011;23928;47.562;7.508;2023-02-01T05:00:40;8.00;;;4.43;;
38117;SDS011;23928;47.562;7.508;2023-02-01T05:03:05;8.03;;;4.30;;
38117;SDS011;23928;47.562;7.508;2023-02-01T05:05:31;6.77;;;4.13;;
38117;SDS011;23928;47.562;7.508;2023-02-01T05:07:56;5.57;;;4.10;;
38117;SDS011;23928;47.562;7.508;2023-02-01T05:10:22;6.87;;;4.07;;
38117;SDS011;23928;47.562;7.508;2023-02-01T05:12:48;5.50;;;3.67;;
38117;SDS011;23928;47.562;7.508;2023-02-01T05:15:32;7.87;;;4.10;;
38117;SDS011;23928;47.562;7.508;2023-02-01T05:17:57;4.40;;;3.37;;
38117;SDS011;23928;47.562;7.508;2023-02-01T05:20:23;7.70;;;3.90;;
38117;SDS011;23928;47.562;7.508;2023-02-01T05:22:49;4.93;;;3.73;;
38117;SDS011;23928;47.562;7.508;2023-02-01T05:25:15;5.83;;;3.47;;
38117;SDS011;23928;47.562;7.508;2023-02-01T05:27:41;5.43;;;3.77;;
38117;SDS011;23928;47.562;7.508;2023-02-01T05:30:07;5.37;;;3.60;;
38117;SDS011;23928;47.562;7.508;2023-02-01T05:32:33;6.37;;;4.20;;
38117;SDS011;23928;47.562;7.508;2023-02-01T05:34:59;8.63;;;3.70;;
38117;SDS011;23928;47.562;7.508;2023-02-01T05:37:25;4.63;;;3.37;;
38117;SDS011;23928;47.562;7.508;2023-02-01T05:39:51;6.60;;;4.43;;
38117;SDS011;23928;47.562;7.508;2023-02-01T05:42:16;4.50;;;3.40;;
38117;SDS011;23928;47.562;7.508;2023-02-01T05:44:42;5.73;;;3.60;;
38117;SDS011;23928;47.562;7.508;2023-02-01T05:47:07;4.07;;;3.40;;
38117;SDS011;23928;47.562;7.508;2023-02-01T05:49:33;8.80;;;4.37;;
38117;SDS011;23928;47.562;7.508;2023-02-01T05:51:59;5.73;;;3.40;;
38117;SDS011;23928;47.562;7.508;2023-02-01T05:54:24;5.80;;;3.87;;
38117;SDS011;23928;47.562;7.508;2023-02-01T05:56:50;4.83;;;3.67;;
38117;SDS011;23928;47.562;7.508;2023-02-01T05:59:16;6.27;;;3.80;;
38117;SDS011;23928;47.562;7.508;2023-02-01T06:01:42;6.83;;;4.30;;
38117;SDS011;23928;47.562;7.508;2023-02-01T06:04:07;5.77;;;3.53;;
38117;SDS011;23928;47.562;7.508;2023-02-01T06:06:33;6.00;;;4.10;;
38117;SDS011;23928;47.562;7.508;2023-02-01T06:08:59;5.67;;;3.60;;
38117;SDS011;23928;47.562;7.508;2023-02-01T06:11:25;4.37;;;3.37;;
38117;SDS011;23928;47.562;7.508;2023-02-01T06:13:51;49.50;;;6.93;;
38117;SDS011;23928;47.562;7.508;2023-02-01T06:16:17;4.87;;;3.43;;
38117;SDS011;23928;47.562;7.508;2023-02-01T06:18:43;4.47;;;3.13;;
38117;SDS011;23928;47.562;7.508;2023-02-01T06:21:08;6.00;;;3.90;;
38117;SDS011;23928;47.562;7.508;2023-02-01T06:23:34;6.13;;;3.73;;
38117;SDS011;23928;47.562;7.508;2023-02-01T06:26:04;3.63;;;3.17;;
38117;SDS011;23928;47.562;7.508;2023-02-01T06:28:31;6.80;;;4.23;;
38117;SDS011;23928;47.562;7.508;2023-02-01T06:30:57;5.60;;;3.50;;
38117;SDS011;23928;47.562;7.508;2023-02-01T06:33:23;6.37;;;4.47;;
38117;SDS011;23928;47.562;7.508;2023-02-01T06:35:56;4.23;;;3.03;;
38117;SDS011;23928;47.562;7.508;2023-02-01T06:38:23;5.23;;;3.17;;
38117;SDS011;23928;47.562;7.508;2023-02-01T06:40:52;5.50;;;4.20;;
38117;SDS011;23928;47.562;7.508;2023-02-01T06:43:18;7.83;;;3.90;;
38117;SDS011;23928;47.562;7.508;2023-02-01T06:45:44;7.37;;;4.33;;
38117;SDS011;23928;47.562;7.508;2023-02-01T06:48:09;5.40;;;3.97;;
38117;SDS011;23928;47.562;7.508;2023-02-01T06:50:35;6.07;;;4.23;;
38117;SDS011;23928;47.562;7.508;2023-02-01T06:53:01;10.77;;;5.67;;
38117;SDS011;23928;47.562;7.508;2023-02-01T06:55:26;12.73;;;7.50;;
38117;SDS011;23928;47.562;7.508;2023-02-01T06:57:55;12.80;;;6.90;;
38117;SDS011;23928;47.562;7.508;2023-02-01T07:00:24;26.20;;;15.60;;
38117;SDS011;23928;47.562;7.508;2023-02-01T07:02:50;18.13;;;11.50;;
38117;SDS011;23928;47.562;7.508;2023-02-01T07:05:15;33.50;;;19.17;;
38117;SDS011;23928;47.562;7.508;2023-02-01T07:07:41;170.33;;;69.57;;
38117;SDS011;23928;47.562;7.508;2023-02-01T07:10:07;66.80;;;30.97;;
38117;SDS011;23928;47.562;7.508;2023-02-01T07:12:34;20.97;;;12.57;;
38117;SDS011;23928;47.562;7.508;2023-02-01T07:15:00;23.60;;;17.77;;
38117;SDS011;23928;47.562;7.508;2023-02-01T07:17:27;15.80;;;12.07;;
38117;SDS011;23928;47.562;7.508;2023-02-01T07:19:54;13.10;;;7.53;;
38117;SDS011;23928;47.562;7.508;2023-02-01T07:22:20;6.00;;;3.43;;
38117;SDS011;23928;47.562;7.508;2023-02-01T07:24:46;25.37;;;15.53;;
38117;SDS011;23928;47.562;7.508;2023-02-01T07:27:11;16.83;;;10.07;;
38117;SDS011;23928;47.562;7.508;2023-02-01T07:29:37;7.13;;;4.67;;
38117;SDS011;23928;47.562;7.508;2023-02-01T07:32:03;4.03;;;2.77;;
38117;SDS011;23928;47.562;7.508;2023-02-01T07:34:29;3.50;;;2.50;;
38117;SDS011;23928;47.562;7.508;2023-02-01T07:36:56;3.77;;;1.70;;
38117;SDS011;23928;47.562;7.508;2023-02-01T07:39:21;1.53;;;1.30;;
38117;SDS011;23928;47.562;7.508;2023-02-01T07:41:47;2.33;;;1.90;;
38117;SDS011;23928;47.562;7.508;2023-02-01T07:44:13;3.30;;;1.80;;
38117;SDS011;23928;47.562;7.508;2023-02-01T07:46:38;2.80;;;1.83;;
38117;SDS011;23928;47.562;7.508;2023-02-01T07:49:08;1.90;;;1.60;;
38117;SDS011;23928;47.562;7.508;2023-02-01T07:51:33;2.07;;;1.83;;
38117;SDS011;23928;47.562;7.508;2023-02-01T07:53:59;2.30;;;1.60;;
38117;SDS011;23928;47.562;7.508;2023-02-01T07:56:24;2.30;;;1.73;;
38117;SDS011;23928;47.562;7.508;2023-02-01T07:58:51;2.13;;;1.60;;
38117;SDS011;23928;47.562;7.508;2023-02-01T08:01:22;1.53;;;1.40;;
38117;SDS011;23928;47.562;7.508;2023-02-01T08:03:59;1.93;;;1.13;;
38117;SDS011;23928;47.562;7.508;2023-02-01T08:06:26;1.73;;;1.20;;
38117;SDS011;23928;47.562;7.508;2023-02-01T08:08:54;1.60;;;1.43;;
38117;SDS011;23928;47.562;7.508;2023-02-01T08:11:20;1.50;;;1.40;;
38117;SDS011;23928;47.562;7.508;2023-02-01T08:13:47;2.03;;;1.67;;
38117;SDS011;23928;47.562;7.508;2023-02-01T08:16:13;1.33;;;1.23;;
38117;SDS011;23928;47.562;7.508;2023-02-01T08:18:41;1.03;;;1.03;;
38117;SDS011;23928;47.562;7.508;2023-02-01T08:23:37;1.40;;;1.27;;
38117;SDS011;23928;47.562;7.508;2023-02-01T08:26:05;2.67;;;1.50;;
38117;SDS011;23928;47.562;7.508;2023-02-01T08:28:40;2.57;;;1.57;;
38117;SDS011;23928;47.562;7.508;2023-02-01T08:31:14;1.70;;;1.60;;
38117;SDS011;23928;47.562;7.508;2023-02-01T08:33:41;2.33;;;1.63;;
38117;SDS011;23928;47.562;7.508;2023-02-01T08:36:08;2.57;;;1.60;;
38117;SDS011;23928;47.562;7.508;2023-02-01T08:38:35;2.90;;;1.53;;
38117;SDS011;23928;47.562;7.508;2023-02-01T08:41:12;3.50;;;1.90;;
38117;SDS011;23928;47.562;7.508;2023-02-01T08:43:40;3.70;;;1.63;;
38117;SDS011;23928;47.562;7.508;2023-02-01T08:46:06;2.33;;;1.33;;
38117;SDS011;23928;47.562;7.508;2023-02-01T08:48:32;2.00;;;1.53;;
38117;SDS011;23928;47.562;7.508;2023-02-01T08:51:06;1.67;;;1.33;;
38117;SDS011;23928;47.562;7.508;2023-02-01T08:53:36;1.97;;;1.63;;
38117;SDS011;23928;47.562;7.508;2023-02-01T08:56:03;1.50;;;1.40;;
38117;SDS011;23928;47.562;7.508;2023-02-01T08:58:29;3.40;;;1.97;;
38117;SDS011;23928;47.562;7.508;2023-02-01T09:00:54;3.57;;;1.87;;
38117;SDS011;23928;47.562;7.508;2023-02-01T09:03:20;1.63;;;1.40;;
38117;SDS011;23928;47.562;7.508;2023-02-01T09:05:46;2.83;;;1.53;;
38117;SDS011;23928;47.562;7.508;2023-02-01T09:08:12;3.90;;;2.43;;
38117;SDS011;23928;47.562;7.508;2023-02-01T09:10:40;2.00;;;1.80;;
38117;SDS011;23928;47.562;7.508;2023-02-01T09:13:06;3.90;;;1.80;;
38117;SDS011;23928;47.562;7.508;2023-02-01T09:15:32;4.33;;;2.00;;
38117;SDS011;23928;47.562;7.508;2023-02-01T09:17:58;1.83;;;1.70;;
38117;SDS011;23928;47.562;7.508;2023-02-01T09:20:24;3.20;;;1.87;;
38117;SDS011;23928;47.562;7.508;2023-02-01T09:22:54;2.33;;;2.00;;
38117;SDS011;23928;47.562;7.508;2023-02-01T09:25:20;2.50;;;2.07;;
38117;SDS011;23928;47.562;7.508;2023-02-01T09:27:45;2.90;;;1.83;;
38117;SDS011;23928;47.562;7.508;2023-02-01T09:30:11;6.20;;;2.10;;
38117;SDS011;23928;47.562;7.508;2023-02-01T09:32:37;2.53;;;2.03;;
38117;SDS011;23928;47.562;7.508;2023-02-01T09:35:03;1.80;;;1.60;;
38117;SDS011;23928;47.562;7.508;2023-02-01T09:37:29;3.77;;;1.67;;
38117;SDS011;23928;47.562;7.508;2023-02-01T09:39:54;5.10;;;1.70;;
38117;SDS011;23928;47.562;7.508;2023-02-01T09:47:54;2.03;;;1.80;;
38117;SDS011;23928;47.562;7.508;2023-02-01T09:50:30;4.27;;;2.10;;
38117;SDS011;23928;47.562;7.508;2023-02-01T09:53:04;2.70;;;2.00;;
38117;SDS011;23928;47.562;7.508;2023-02-01T09:58:11;8.20;;;2.13;;
38117;SDS011;23928;47.562;7.508;2023-02-01T10:00:43;3.37;;;1.93;;
38117;SDS011;23928;47.562;7.508;2023-02-01T10:03:17;2.73;;;2.10;;
38117;SDS011;23928;47.562;7.508;2023-02-01T10:12:00;7.70;;;2.23;;
38117;SDS011;23928;47.562;7.508;2023-02-01T10:15:03;5.47;;;2.20;;
38117;SDS011;23928;47.562;7.508;2023-02-01T10:17:53;4.97;;;2.10;;
38117;SDS011;23928;47.562;7.508;2023-02-01T10:26:32;3.50;;;1.97;;
38117;SDS011;23928;47.562;7.508;2023-02-01T10:29:03;4.37;;;2.10;;
38117;SDS011;23928;47.562;7.508;2023-02-01T10:31:30;6.00;;;1.90;;
38117;SDS011;23928;47.562;7.508;2023-02-01T10:34:00;5.03;;;2.30;;
38117;SDS011;23928;47.562;7.508;2023-02-01T10:36:42;4.53;;;2.00;;
38117;SDS011;23928;47.562;7.508;2023-02-01T10:39:39;6.13;;;2.17;;
38117;SDS011;23928;47.562;7.508;2023-02-01T10:42:04;8.03;;;2.87;;
38117;SDS011;23928;47.562;7.508;2023-02-01T10:44:30;4.33;;;2.30;;
38117;SDS011;23928;47.562;7.508;2023-02-01T10:46:59;3.80;;;2.27;;
38117;SDS011;23928;47.562;7.508;2023-02-01T10:54:40;3.53;;;2.37;;
38117;SDS011;23928;47.562;7.508;2023-02-01T10:57:10;4.20;;;2.20;;
38117;SDS011;23928;47.562;7.508;2023-02-01T10:59:48;9.17;;;2.50;;
38117;SDS011;23928;47.562;7.508;2023-02-01T11:05:04;4.33;;;2.50;;
38117;SDS011;23928;47.562;7.508;2023-02-01T11:07:37;3.40;;;2.40;;
38117;SDS011;23928;47.562;7.508;2023-02-01T11:10:04;4.77;;;2.50;;
38117;SDS011;23928;47.562;7.508;2023-02-01T11:12:35;7.03;;;2.60;;
38117;SDS011;23928;47.562;7.508;2023-02-01T11:17:39;3.03;;;2.37;;
38117;SDS011;23928;47.562;7.508;2023-02-01T11:23:02;7.63;;;2.77;;
38117;SDS011;23928;47.562;7.508;2023-02-01T11:25:28;4.53;;;2.80;;
38117;SDS011;23928;47.562;7.508;2023-02-01T11:27:55;11.33;;;3.63;;
38117;SDS011;23928;47.562;7.508;2023-02-01T11:30:32;7.00;;;3.17;;
38117;SDS011;23928;47.562;7.508;2023-02-01T11:33:01;4.40;;;2.70;;
38117;SDS011;23928;47.562;7.508;2023-02-01T11:35:30;3.83;;;2.53;;
38117;SDS011;23928;47.562;7.508;2023-02-01T11:37:58;7.40;;;3.20;;
38117;SDS011;23928;47.562;7.508;2023-02-01T11:40:28;7.83;;;2.93;;
38117;SDS011;23928;47.562;7.508;2023-02-01T11:45:58;4.53;;;2.93;;
38117;SDS011;23928;47.562;7.508;2023-02-01T11:48:29;5.37;;;2.53;;
38117;SDS011;23928;47.562;7.508;2023-02-01T11:51:04;8.50;;;3.17;;
38117;SDS011;23928;47.562;7.508;2023-02-01T11:56:36;6.83;;;2.70;;
38117;SDS011;23928;47.562;7.508;2023-02-01T11:59:23;7.97;;;3.43;;
38117;SDS011;23928;47.562;7.508;2023-02-01T12:02:18;7.83;;;3.10;;
38117;SDS011;23928;47.562;7.508;2023-02-01T12:07:38;8.63;;;2.40;;
38117;SDS011;23928;47.562;7.508;2023-02-01T12:10:18;3.77;;;2.47;;
38117;SDS011;23928;47.562;7.508;2023-02-01T12:12:51;12.20;;;3.43;;
38117;SDS011;23928;47.562;7.508;2023-02-01T12:15:25;7.03;;;3.00;;
38117;SDS011;23928;47.562;7.508;2023-02-01T12:43:21;7.47;;;2.50;;
38117;SDS011;23928;47.562;7.508;2023-02-01T12:46:09;8.90;;;2.70;;
38117;SDS011;23928;47.562;7.508;2023-02-01T12:49:13;7.27;;;2.73;;
38117;SDS011;23928;47.562;7.508;2023-02-01T12:51:40;7.33;;;2.70;;
38117;SDS011;23928;47.562;7.508;2023-02-01T12:54:14;12.57;;;3.33;;
38117;SDS011;23928;47.562;7.508;2023-02-01T12:56:43;7.20;;;2.70;;
38117;SDS011;23928;47.562;7.508;2023-02-01T13:07:41;8.03;;;3.87;;
38117;SDS011;23928;47.562;7.508;2023-02-01T13:10:15;7.40;;;2.97;;
38117;SDS011;23928;47.562;7.508;2023-02-01T13:12:50;10.93;;;3.10;;
38117;SDS011;23928;47.562;7.508;2023-02-01T13:15:37;10.77;;;2.30;;
38117;SDS011;23928;47.562;7.508;2023-02-01T13:18:06;9.97;;;3.10;;
38117;SDS011;23928;47.562;7.508;2023-02-01T13:20:55;8.13;;;3.10;;
38117;SDS011;23928;47.562;7.508;2023-02-01T13:23:30;10.17;;;3.17;;
38117;SDS011;23928;47.562;7.508;2023-02-01T13:26:00;13.13;;;3.27;;
38117;SDS011;23928;47.562;7.508;2023-02-01T13:28:26;6.90;;;3.20;;
38117;SDS011;23928;47.562;7.508;2023-02-01T13:33:49;7.43;;;2.60;;
38117;SDS011;23928;47.562;7.508;2023-02-01T13:36:41;8.37;;;2.90;;
38117;SDS011;23928;47.562;7.508;2023-02-01T13:42:13;7.00;;;3.13;;
38117;SDS011;23928;47.562;7.508;2023-02-01T13:44:50;10.80;;;2.50;;
38117;SDS011;23928;47.562;7.508;2023-02-01T13:47:34;6.13;;;2.77;;
38117;SDS011;23928;47.562;7.508;2023-02-01T13:53:03;10.83;;;3.27;;
38117;SDS011;23928;47.562;7.508;2023-02-01T13:55:39;9.30;;;2.57;;
38117;SDS011;23928;47.562;7.508;2023-02-01T14:03:49;10.13;;;3.20;;
38117;SDS011;23928;47.562;7.508;2023-02-01T14:16:40;7.30;;;3.27;;
38117;SDS011;23928;47.562;7.508;2023-02-01T14:19:20;9.90;;;3.30;;
38117;SDS011;23928;47.562;7.508;2023-02-01T14:21:51;7.37;;;2.80;;
38117;SDS011;23928;47.562;7.508;2023-02-01T14:24:33;13.40;;;4.70;;
38117;SDS011;23928;47.562;7.508;2023-02-01T14:29:38;9.80;;;2.63;;
38117;SDS011;23928;47.562;7.508;2023-02-01T14:32:06;6.23;;;2.80;;
38117;SDS011;23928;47.562;7.508;2023-02-01T15:01:03;10.83;;;3.10;;
38117;SDS011;23928;47.562;7.508;2023-02-01T15:06:20;8.83;;;3.00;;
38117;SDS011;23928;47.562;7.508;2023-02-01T15:08:54;9.67;;;2.80;;
38117;SDS011;23928;47.562;7.508;2023-02-01T15:11:23;8.93;;;3.53;;
38117;SDS011;23928;47.562;7.508;2023-02-01T15:13:50;7.43;;;2.97;;
38117;SDS011;23928;47.562;7.508;2023-02-01T15:16:19;9.43;;;2.17;;
38117;SDS011;23928;47.562;7.508;2023-02-01T15:18:47;10.47;;;2.67;;
38117;SDS011;23928;47.562;7.508;2023-02-01T15:21:22;13.33;;;2.77;;
38117;SDS011;23928;47.562;7.508;2023-02-01T15:23:50;8.80;;;2.83;;
38117;SDS011;23928;47.562;7.508;2023-02-01T15:26:30;8.27;;;2.50;;
38117;SDS011;23928;47.562;7.508;2023-02-01T15:28:57;7.77;;;2.80;;
38117;SDS011;23928;47.562;7.508;2023-02-01T15:31:33;8.43;;;3.50;;
38117;SDS011;23928;47.562;7.508;2023-02-01T15:34:01;7.60;;;3.07;;
38117;SDS011;23928;47.562;7.508;2023-02-01T15:36:26;7.20;;;2.63;;
38117;SDS011;23928;47.562;7.508;2023-02-01T15:41:54;11.17;;;3.10;;
38117;SDS011;23928;47.562;7.508;2023-02-01T15:44:37;11.37;;;2.97;;
38117;SDS011;23928;47.562;7.508;2023-02-01T15:47:17;8.97;;;2.73;;
38117;SDS011;23928;47.562;7.508;2023-02-01T15:49:50;6.13;;;3.23;;
38117;SDS011;23928;47.562;7.508;2023-02-01T15:52:35;10.00;;;2.97;;
38117;SDS011;23928;47.562;7.508;2023-02-01T15:55:17;8.17;;;3.07;;
38117;SDS011;23928;47.562;7.508;2023-02-01T15:57:47;7.23;;;3.43;;
38117;SDS011;23928;47.562;7.508;2023-02-01T16:03:20;13.33;;;4.03;;
38117;SDS011;23928;47.562;7.508;2023-02-01T16:06:03;11.43;;;3.53;;
38117;SDS011;23928;47.562;7.508;2023-02-01T16:08:35;8.53;;;3.43;;
38117;SDS011;23928;47.562;7.508;2023-02-01T16:13:34;9.67;;;3.47;;
38117;SDS011;23928;47.562;7.508;2023-02-01T16:16:00;10.73;;;2.90;;
38117;SDS011;23928;47.562;7.508;2023-02-01T16:18:25;8.03;;;2.93;;
38117;SDS011;23928;47.562;7.508;2023-02-01T16:20:51;10.87;;;3.90;;
38117;SDS011;23928;47.562;7.508;2023-02-01T16:23:17;13.53;;;6.10;;
38117;SDS011;23928;47.562;7.508;2023-02-01T16:25:44;10.37;;;4.00;;
38117;SDS011;23928;47.562;7.508;2023-02-01T16:28:09;9.90;;;2.60;;
38117;SDS011;23928;47.562;7.508;2023-02-01T16:30:35;11.03;;;2.83;;
38117;SDS011;23928;47.562;7.508;2023-02-01T16:33:01;12.90;;;3.33;;
38117;SDS011;23928;47.562;7.508;2023-02-01T16:38:00;14.00;;;3.77;;
38117;SDS011;23928;47.562;7.508;2023-02-01T16:40:27;8.17;;;3.53;;
38117;SDS011;23928;47.562;7.508;2023-02-01T16:42:53;12.30;;;3.50;;
38117;SDS011;23928;47.562;7.508;2023-02-01T16:45:21;11.30;;;2.63;;
38117;SDS011;23928;47.562;7.508;2023-02-01T16:47:48;6.53;;;2.50;;
38117;SDS011;23928;47.562;7.508;2023-02-01T16:50:22;14.23;;;2.53;;
38117;SDS011;23928;47.562;7.508;2023-02-01T16:52:49;8.37;;;2.60;;
38117;SDS011;23928;47.562;7.508;2023-02-01T16:55:16;11.87;;;3.03;;
38117;SDS011;23928;47.562;7.508;2023-02-01T16:57:44;11.43;;;2.87;;
38117;SDS011;23928;47.562;7.508;2023-02-01T17:00:10;12.00;;;2.80;;
38117;SDS011;23928;47.562;7.508;2023-02-01T17:02:37;9.60;;;2.73;;
38117;SDS011;23928;47.562;7.508;2023-02-01T17:05:03;11.23;;;2.87;;
38117;SDS011;23928;47.562;7.508;2023-02-01T17:07:29;11.27;;;2.77;;
38117;SDS011;23928;47.562;7.508;2023-02-01T17:09:55;10.97;;;2.90;;
38117;SDS011;23928;47.562;7.508;2023-02-01T17:12:26;7.33;;;2.83;;
38117;SDS011;23928;47.562;7.508;2023-02-01T17:14:54;7.13;;;3.73;;
38117;SDS011;23928;47.562;7.508;2023-02-01T17:17:22;8.00;;;3.17;;
38117;SDS011;23928;47.562;7.508;2023-02-01T17:19:50;12.53;;;2.67;;
38117;SDS011;23928;47.562;7.508;2023-02-01T17:22:18;10.63;;;3.70;;
38117;SDS011;23928;47.562;7.508;2023-02-01T17:24:44;7.77;;;2.97;;
38117;SDS011;23928;47.562;7.508;2023-02-01T17:27:10;12.17;;;3.03;;
38117;SDS011;23928;47.562;7.508;2023-02-01T17:29:35;8.60;;;2.97;;
38117;SDS011;23928;47.562;7.508;2023-02-01T17:32:01;13.17;;;3.13;;
38117;SDS011;23928;47.562;7.508;2023-02-01T17:34:28;9.90;;;3.27;;
38117;SDS011;23928;47.562;7.508;2023-02-01T17:36:53;10.53;;;3.00;;
38117;SDS011;23928;47.562;7.508;2023-02-01T17:39:19;10.40;;;3.03;;
38117;SDS011;23928;47.562;7.508;2023-02-01T17:42:04;8.37;;;2.70;;
38117;SDS011;23928;47.562;7.508;2023-02-01T17:44:30;11.63;;;3.17;;
38117;SDS011;23928;47.562;7.508;2023-02-01T17:46:56;9.13;;;2.93;;
38117;SDS011;23928;47.562;7.508;2023-02-01T17:49:23;5.87;;;2.60;;
38117;SDS011;23928;47.562;7.508;2023-02-01T17:51:49;9.37;;;2.90;;
38117;SDS011;23928;47.562;7.508;2023-02-01T17:54:16;7.67;;;2.57;;
38117;SDS011;23928;47.562;7.508;2023-02-01T17:56:43;10.93;;;2.80;;